Queen Elizabeth — ZCEF2 — position and weather

sailwx.info

Track history (hours):
 
Tides and Currents Weather Stations Pressure Air Temp Water Temp Dewpoint Dewpoint Depression Visibility Wind Speed Wind Dir Waves Ship Positions

Queen Elizabeth

Last reported at 2019-Oct-17 17:29 UTC. Time now 2019-Oct-17 17:38 UTC.
Position N 61°21' E 004°00'.

Length 294 m; draft 8 m.

Type: Passenger vessel. MMSI: 310625000.

Date/timePositionNaut miles runAvg speedWind from/ knotsBaromVisibWave heightAir tempDewpointWater temp
2019-Oct-17 17:29N 61°21' E 004°00'715.1
2019-Oct-17 17:00N 61°28' E 003°59'714.7
2019-Oct-17 16:30N 61°36' E 004°00'714.5
2019-Oct-17 16:00N 61°43' E 004°01'714.6
2019-Oct-17 15:30N 61°50' E 004°01'714.8
2019-Oct-17 15:00N 61°57' E 004°01'714.8
2019-Oct-17 14:30N 62°05' E 004°01'714.7
2019-Oct-17 14:00N 62°12' E 004°01'63732.3
2019-Oct-17 14:00N 62°06' E 004°00'1428.1 140 / 191001.8 5.4 11.0 9.012.0
2019-Oct-17 13:31N 62°20' E 004°01'815.1
2019-Oct-17 13:00N 62°27' E 004°01'815.5
2019-Oct-17 12:30N 62°35' E 004°01'814.9
2019-Oct-17 11:59N 62°43' E 004°01'714.7
2019-Oct-17 11:30N 62°50' E 004°01'815.2
2019-Oct-17 11:00N 62°57' E 004°02'815.5
2019-Oct-17 10:30N 63°04' E 004°11'815.9
2019-Oct-17 10:00N 63°10' E 004°22'5398.4
2019-Oct-17 10:00N 63°06' E 004°18'1225.4 150 / 121004.0 11.0 9.011.0
2019-Oct-17 09:30N 63°17' E 004°33'815.7
2019-Oct-17 09:00N 63°23' E 004°43'815.4
2019-Oct-17 08:30N 63°29' E 004°54'815.5
2019-Oct-17 08:00N 63°35' E 005°05'815.1
2019-Oct-17 07:31N 63°40' E 005°16'815.2
2019-Oct-17 07:00N 63°46' E 005°27'715.1
2019-Oct-17 06:30N 63°52' E 005°38'815.2
2019-Oct-17 06:00N 63°58' E 005°50'815.4
2019-Oct-17 05:30N 64°04' E 006°01'815.6
2019-Oct-17 05:00N 64°09' E 006°13'815.7
2019-Oct-17 04:30N 64°15' E 006°25'815.9
2019-Oct-17 04:00N 64°22' E 006°37'815.6
2019-Oct-17 03:30N 64°27' E 006°48'815.5
2019-Oct-17 03:00N 64°33' E 007°00'815.7
2019-Oct-17 02:30N 64°39' E 007°12'815.9
2019-Oct-17 02:00N 64°45' E 007°24'816.0
2019-Oct-17 01:30N 64°51' E 007°36'1216.0
2019-Oct-17 00:44N 65°00' E 007°55'516.1
2019-Oct-17 00:25N 65°04' E 008°03'715.9
2019-Oct-17 00:00N 65°09' E 008°13'815.7
2019-Oct-16 23:30N 65°15' E 008°26'815.7
2019-Oct-16 23:00N 65°21' E 008°38'815.7
2019-Oct-16 22:30N 65°27' E 008°50'815.4
2019-Oct-16 22:00N 65°33' E 009°02'815.7
2019-Oct-16 21:30N 65°39' E 009°15'815.8
2019-Oct-16 21:00N 65°45' E 009°28'31740.0
2019-Oct-16 21:00N 65°42' E 009°24'1122.6 100 / 331010.2 8.0 0.510.0
2019-Oct-16 20:30N 65°51' E 009°40'816.0
2019-Oct-16 20:00N 65°57' E 009°53'815.8
2019-Oct-16 19:30N 66°03' E 010°06'815.4
2019-Oct-16 19:00N 66°09' E 010°18'917.2
2019-Oct-16 18:30N 66°16' E 010°32'917.9
2019-Oct-16 18:00N 66°22' E 010°47'917.5
2019-Oct-16 17:30N 66°29' E 011°01'917.1
2019-Oct-16 17:00N 66°35' E 011°15'817.1
2019-Oct-16 16:30N 66°42' E 011°29'815.9
2019-Oct-16 16:00N 66°48' E 011°42'815.9
2019-Oct-16 15:30N 66°54' E 011°55'816.1
2019-Oct-16 15:00N 67°00' E 012°08'816.0
2019-Oct-16 14:30N 67°06' E 012°21'815.9
2019-Oct-16 14:00N 67°12' E 012°35'816.0
2019-Oct-16 13:30N 67°18' E 012°48'816.3
2019-Oct-16 13:00N 67°24' E 013°02'816.3
2019-Oct-16 12:30N 67°31' E 013°16'816.4
2019-Oct-16 12:00N 67°37' E 013°29'816.4
2019-Oct-16 11:30N 67°43' E 013°44'816.0
2019-Oct-16 11:00N 67°49' E 013°59'816.3
2019-Oct-16 10:30N 67°54' E 014°16'816.0
2019-Oct-16 10:00N 67°58' E 014°33'816.0
2019-Oct-16 09:30N 68°03' E 014°50'816.0
2019-Oct-16 09:00N 68°08' E 015°08'816.0
2019-Oct-16 08:30N 68°11' E 015°27'815.8
2019-Oct-16 08:00N 68°16' E 015°45'815.5
2019-Oct-16 07:30N 68°21' E 016°01'713.8
2019-Oct-16 07:00N 68°24' E 016°18'816.0
2019-Oct-16 06:30N 68°26' E 016°39'816.3
2019-Oct-16 06:00N 68°26' E 017°01'715.3
2019-Oct-16 05:30N 68°26' E 017°21'2 3.1
2019-Oct-16 05:00N 68°26' E 017°25'0 0.0
2019-Oct-16 04:30N 68°26' E 017°25'0 0.0
2019-Oct-16 04:00N 68°26' E 017°25'0 0.0
2019-Oct-16 03:30N 68°26' E 017°25'0 0.0
2019-Oct-16 03:00N 68°26' E 017°25'0 0.0
2019-Oct-16 02:30N 68°26' E 017°25'0 0.0
2019-Oct-16 02:00N 68°26' E 017°25'0 0.0
2019-Oct-16 01:30N 68°26' E 017°25'0 0.0
2019-Oct-16 01:00N 68°26' E 017°25'0 0.0
2019-Oct-16 00:30N 68°26' E 017°25'0 0.0
2019-Oct-16 00:00N 68°26' E 017°25'0 0.0
2019-Oct-15 23:30N 68°26' E 017°25'0 0.0
2019-Oct-15 23:00N 68°26' E 017°25'0 0.0
2019-Oct-15 22:30N 68°26' E 017°25'0 0.0
2019-Oct-15 22:00N 68°26' E 017°25'0 0.0
2019-Oct-15 21:30N 68°26' E 017°25'0 0.0
2019-Oct-15 21:00N 68°26' E 017°25'0 0.0
2019-Oct-15 20:30N 68°26' E 017°25'0 0.0
2019-Oct-15 20:00N 68°26' E 017°25'0 0.0
2019-Oct-15 19:30N 68°26' E 017°25'0 0.0
2019-Oct-15 19:00N 68°26' E 017°25'0 0.0
2019-Oct-15 18:30N 68°26' E 017°25'0 0.0
2019-Oct-15 18:00N 68°26' E 017°25'0 0.0
2019-Oct-15 17:30N 68°26' E 017°25'0 0.0
2019-Oct-15 17:00N 68°26' E 017°25'0 0.0
2019-Oct-15 16:30N 68°26' E 017°25'0 0.0
2019-Oct-15 16:00N 68°26' E 017°25'0 0.0
2019-Oct-15 15:30N 68°26' E 017°25'0 0.0
2019-Oct-15 15:00N 68°26' E 017°25'0 0.0
2019-Oct-15 14:30N 68°26' E 017°25'0 0.0
2019-Oct-15 14:00N 68°26' E 017°25'0 0.0
2019-Oct-15 13:30N 68°26' E 017°25'0 0.0
2019-Oct-15 13:00N 68°26' E 017°25'0 0.0
2019-Oct-15 12:30N 68°26' E 017°25'0 0.0
2019-Oct-15 12:00N 68°26' E 017°25'0 0.0
2019-Oct-15 11:30N 68°26' E 017°25'0 0.0
2019-Oct-15 11:00N 68°26' E 017°25'0 0.0
2019-Oct-15 10:30N 68°26' E 017°25'0 0.0
2019-Oct-15 10:00N 68°26' E 017°25'0 0.0
2019-Oct-15 09:30N 68°26' E 017°25'0 0.0
2019-Oct-15 09:00N 68°26' E 017°25'0 0.0
2019-Oct-15 08:30N 68°26' E 017°25'0 0.0
2019-Oct-15 08:00N 68°26' E 017°25'0 0.0
2019-Oct-15 07:30N 68°26' E 017°25'0 0.0
2019-Oct-15 07:00N 68°26' E 017°25'0 0.0
2019-Oct-15 06:30N 68°26' E 017°25'0 0.0
2019-Oct-15 06:00N 68°26' E 017°25'0 0.1
2019-Oct-15 05:30N 68°26' E 017°25'3 5.4
2019-Oct-15 05:00N 68°26' E 017°18'815.0
2019-Oct-15 04:30N 68°26' E 016°57'816.7
2019-Oct-15 04:00N 68°26' E 016°35'816.5
2019-Oct-15 03:30N 68°23' E 016°14'510.6
2019-Oct-15 03:00N 68°21' E 016°00'510.3
2019-Oct-15 02:30N 68°18' E 015°50'510.0
2019-Oct-15 02:00N 68°14' E 015°41'510.2
2019-Oct-15 01:30N 68°12' E 015°29'510.5
2019-Oct-15 01:00N 68°10' E 015°16'510.7
2019-Oct-15 00:30N 68°08' E 015°03'510.7
2019-Oct-15 00:00N 68°05' E 014°50'510.1
2019-Oct-14 23:30N 68°03' E 014°37'510.1
2019-Oct-14 23:00N 68°01' E 014°25'510.5
2019-Oct-14 22:30N 67°59' E 014°12'510.9
2019-Oct-14 22:00N 67°57' E 013°59'510.6
2019-Oct-14 21:30N 67°55' E 013°46'610.9
2019-Oct-14 20:59N 67°53' E 013°32'510.9
2019-Oct-14 20:30N 67°51' E 013°19'611.0
2019-Oct-14 20:00N 67°49' E 013°05'713.4
2019-Oct-14 19:30N 67°48' E 012°48'611.6
2019-Oct-14 19:00N 67°49' E 012°33'611.5
2019-Oct-14 18:30N 67°51' E 012°18'611.1
2019-Oct-14 17:59N 67°55' E 012°08'510.3
2019-Oct-14 17:30N 67°60' E 012°02'611.5
2019-Oct-14 17:00N 68°05' E 012°10'611.3
2019-Oct-14 16:30N 68°10' E 012°18'510.8
2019-Oct-14 15:59N 68°14' E 012°25'510.6
2019-Oct-14 15:30N 68°19' E 012°33'611.2
2019-Oct-14 15:00N 68°23' E 012°42'611.2
2019-Oct-14 14:30N 68°27' E 012°52'510.7
2019-Oct-14 14:00N 68°32' E 013°00'510.8
2019-Oct-14 13:30N 68°36' E 013°10'510.9
2019-Oct-14 13:00N 68°40' E 013°18'611.1
2019-Oct-14 12:30N 68°45' E 013°28'612.0
2019-Oct-14 12:00N 68°50' E 013°38'612.0
2019-Oct-14 11:30N 68°54' E 013°48'713.0
2019-Oct-14 11:00N 68°60' E 013°58'612.8
2019-Oct-14 10:30N 69°05' E 014°08'612.3
2019-Oct-14 10:00N 69°10' E 014°19'612.2
2019-Oct-14 09:30N 69°14' E 014°33'611.6
2019-Oct-14 09:00N 69°17' E 014°45'611.7
2019-Oct-14 08:29N 69°21' E 014°59'611.8
2019-Oct-14 08:00N 69°24' E 015°12'611.6
2019-Oct-14 07:30N 69°28' E 015°25'611.5
2019-Oct-14 07:00N 69°31' E 015°38'611.0
2019-Oct-14 06:30N 69°34' E 015°52'611.2
2019-Oct-14 06:00N 69°36' E 016°06'611.5
2019-Oct-14 05:30N 69°38' E 016°22'511.0
2019-Oct-14 05:00N 69°39' E 016°37'510.8
2019-Oct-14 04:30N 69°40' E 016°52'611.0
2019-Oct-14 04:00N 69°41' E 017°08'611.1
2019-Oct-14 03:30N 69°42' E 017°24'611.5
2019-Oct-14 03:00N 69°43' E 017°40'611.5
2019-Oct-14 02:30N 69°45' E 017°57'510.7
2019-Oct-14 02:00N 69°46' E 018°12'714.9
2019-Oct-14 01:30N 69°49' E 018°31'612.3
2019-Oct-14 01:00N 69°54' E 018°38'713.6
2019-Oct-14 00:30N 69°51' E 018°55'612.2
2019-Oct-14 00:00N 69°46' E 019°04'510.1
2019-Oct-13 23:30N 69°41' E 019°01'1 1.0
2019-Oct-13 22:57N 69°41' E 018°59'0 0.0
2019-Oct-13 22:27N 69°41' E 018°59'0 0.0
2019-Oct-13 21:57N 69°41' E 018°59'0 0.0
2019-Oct-13 21:27N 69°41' E 018°59'0 0.0
2019-Oct-13 20:57N 69°41' E 018°59'0 0.0
2019-Oct-13 20:27N 69°41' E 018°59'0 0.0
2019-Oct-13 19:57N 69°41' E 018°59'0 0.0
2019-Oct-13 19:27N 69°41' E 018°59'0 0.0
2019-Oct-13 18:57N 69°41' E 018°59'0 0.0
2019-Oct-13 18:27N 69°41' E 018°59'0 0.0
2019-Oct-13 17:57N 69°41' E 018°59'0 0.0
2019-Oct-13 17:27N 69°41' E 018°59'0 0.0
2019-Oct-13 16:57N 69°41' E 018°59'0 0.0
2019-Oct-13 16:27N 69°41' E 018°59'0 0.0
2019-Oct-13 15:57N 69°41' E 018°59'0 0.0
2019-Oct-13 15:27N 69°41' E 018°59'0 0.0
2019-Oct-13 14:57N 69°41' E 018°59'0 0.0
2019-Oct-13 14:27N 69°41' E 018°59'0 0.0
2019-Oct-13 13:57N 69°41' E 018°59'0 0.0
2019-Oct-13 13:27N 69°41' E 018°59'0 0.0
2019-Oct-13 12:57N 69°41' E 018°59'0 0.0
2019-Oct-13 12:27N 69°41' E 018°59'0 0.0
2019-Oct-13 11:57N 69°41' E 018°59'0 0.0
2019-Oct-13 11:27N 69°41' E 018°59'0 0.0
2019-Oct-13 10:57N 69°41' E 018°59'0 0.0
2019-Oct-13 10:27N 69°41' E 018°59'0 0.0
2019-Oct-13 09:57N 69°41' E 018°59'0 0.0
2019-Oct-13 09:27N 69°41' E 018°59'0 0.0
2019-Oct-13 08:57N 69°41' E 018°59'0 0.0
2019-Oct-13 08:27N 69°41' E 018°59'0 0.0
2019-Oct-13 07:57N 69°41' E 018°59'0 0.0
2019-Oct-13 07:27N 69°41' E 018°59'0 0.0
2019-Oct-13 06:57N 69°41' E 018°59'0 0.0
2019-Oct-13 06:27N 69°41' E 018°59'0 0.0
2019-Oct-13 06:00N 69°41' E 018°59'2 4.6
2019-Oct-13 05:30N 69°43' E 019°03'5 9.8
2019-Oct-13 05:00N 69°48' E 019°02'510.3
2019-Oct-13 04:30N 69°51' E 018°53'611.2
2019-Oct-13 04:00N 69°54' E 018°39'510.7
2019-Oct-13 03:30N 69°49' E 018°38'612.1
2019-Oct-13 03:00N 69°48' E 018°21'611.3
2019-Oct-13 02:30N 69°45' E 018°07'510.1
2019-Oct-13 02:00N 69°44' E 017°52'815.6
2019-Oct-13 01:30N 69°42' E 017°31'815.4
2019-Oct-13 01:00N 69°39' E 017°11'815.4
2019-Oct-13 00:30N 69°35' E 016°51'715.0
2019-Oct-13 00:00N 69°32' E 016°31'815.6
2019-Oct-12 23:30N 69°29' E 016°11'816.5
2019-Oct-12 23:00N 69°26' E 015°49'816.6
2019-Oct-12 22:30N 69°22' E 015°28'816.9
2019-Oct-12 22:00N 69°19' E 015°06'8612.0
2019-Oct-12 22:00N 69°12' E 014°54'5 9.3 040 / 15997.9 4.0-1.610.0
2019-Oct-12 21:30N 69°15' E 014°45'816.3
2019-Oct-12 21:00N 69°11' E 014°25'816.7
2019-Oct-12 20:30N 69°04' E 014°12'816.1
2019-Oct-12 20:00N 68°58' E 013°59'816.2
2019-Oct-12 19:30N 68°51' E 013°44'816.0
2019-Oct-12 19:00N 68°45' E 013°31'815.9
2019-Oct-12 18:30N 68°39' E 013°17'816.0
2019-Oct-12 18:00N 68°33' E 013°04'10647.4
2019-Oct-12 18:00N 68°24' E 012°48'2 4.9 030 / 20994.910.8 5.0-3.713.0
2019-Oct-12 17:30N 68°26' E 012°51'815.6
2019-Oct-12 17:00N 68°20' E 012°38'815.3
2019-Oct-12 16:30N 68°14' E 012°27'816.0
2019-Oct-12 16:00N 68°07' E 012°14'816.2
2019-Oct-12 15:30N 68°00' E 012°01'816.1
2019-Oct-12 15:00N 67°54' E 011°48'815.8
2019-Oct-12 14:30N 67°47' E 011°36'815.7
2019-Oct-12 14:00N 67°41' E 011°24'815.6
2019-Oct-12 13:30N 67°35' E 011°14'816.4
2019-Oct-12 13:00N 67°27' E 011°05'816.6
2019-Oct-12 12:30N 67°19' E 010°55'816.3
2019-Oct-12 12:00N 67°12' E 010°46'816.4
2019-Oct-12 11:30N 67°05' E 010°38'816.6
2019-Oct-12 11:00N 66°57' E 010°30'816.6
2019-Oct-12 10:30N 66°50' E 010°21'816.2
2019-Oct-12 10:00N 66°42' E 010°12'816.2
2019-Oct-12 09:30N 66°35' E 010°04'816.2
2019-Oct-12 09:00N 66°27' E 009°56'816.0
2019-Oct-12 08:30N 66°20' E 009°48'816.1
2019-Oct-12 08:00N 66°13' E 009°39'816.1
2019-Oct-12 07:30N 66°05' E 009°31'816.3
2019-Oct-12 07:00N 65°58' E 009°22'816.1
2019-Oct-12 06:30N 65°51' E 009°15'816.2
2019-Oct-12 06:00N 65°43' E 009°06'5315.0
2019-Oct-12 06:00N 65°48' E 009°12'1425.9 020 / 23990.010.8 7.0-0.910.0
2019-Oct-12 05:26N 65°35' E 008°57'716.4
2019-Oct-12 05:00N 65°28' E 008°50'816.3
2019-Oct-12 04:30N 65°21' E 008°42'816.2
2019-Oct-12 04:00N 65°14' E 008°34'815.9
2019-Oct-12 03:30N 65°06' E 008°26'815.7
2019-Oct-12 03:00N 64°59' E 008°18'815.0
2019-Oct-12 02:30N 64°52' E 008°11'1835.6
2019-Oct-12 02:00N 64°36' E 007°54'1018553.6 030 / 25989.010.8 8.0 0.510.0
2019-Oct-12 01:59N 64°45' E 008°04'815.2
2019-Oct-12 01:30N 64°39' E 007°56'815.2
2019-Oct-12 01:00N 64°32' E 007°49'815.2
2019-Oct-12 00:30N 64°25' E 007°42'815.3
2019-Oct-12 00:00N 64°18' E 007°34'815.4
2019-Oct-11 23:30N 64°11' E 007°26'815.5
2019-Oct-11 23:00N 64°04' E 007°18'815.5
2019-Oct-11 22:30N 63°57' E 007°10'815.5
2019-Oct-11 22:00N 63°50' E 007°02'815.9
2019-Oct-11 21:30N 63°43' E 006°54'815.5
2019-Oct-11 21:00N 63°36' E 006°46'71520.3
2019-Oct-11 21:00N 63°42' E 006°54'1529.4 040 / 19989.4 9.0 1.811.6
2019-Oct-11 20:30N 63°29' E 006°38'815.6
2019-Oct-11 19:59N 63°22' E 006°30'715.3
2019-Oct-11 19:30N 63°16' E 006°22'815.1
2019-Oct-11 19:00N 63°09' E 006°15'814.8
2019-Oct-11 18:30N 63°02' E 006°07'816.0
2019-Oct-11 18:00N 62°55' E 005°60'9914.9
2019-Oct-11 18:00N 62°48' E 005°48'2 4.7 050 / 20987.510.8 10.0 7.913.0
2019-Oct-11 17:30N 62°48' E 005°53'715.3
2019-Oct-11 17:00N 62°41' E 005°45'713.9
2019-Oct-11 16:30N 62°35' E 005°39'612.9
2019-Oct-11 16:00N 62°29' E 005°46'713.4
2019-Oct-11 15:30N 62°27' E 006°00'510.1
2019-Oct-11 15:00N 62°28' E 006°11'1 1.6
2019-Oct-11 14:30N 62°28' E 006°09'0 0.0
2019-Oct-11 14:00N 62°28' E 006°09'0 0.0
2019-Oct-11 13:30N 62°28' E 006°09'0 0.0
2019-Oct-11 13:00N 62°28' E 006°09'0 0.0
2019-Oct-11 12:30N 62°28' E 006°09'0 0.0
2019-Oct-11 12:00N 62°28' E 006°09'0 0.0
2019-Oct-11 11:30N 62°28' E 006°09'0 0.0
2019-Oct-11 11:00N 62°28' E 006°09'0 0.0
2019-Oct-11 10:30N 62°28' E 006°09'0 0.0
2019-Oct-11 10:00N 62°28' E 006°09'0 0.0
2019-Oct-11 09:30N 62°28' E 006°09'0 0.0
2019-Oct-11 09:00N 62°28' E 006°09'0 0.0
2019-Oct-11 08:30N 62°28' E 006°09'0 0.0
2019-Oct-11 08:00N 62°28' E 006°09'0 0.0
2019-Oct-11 07:30N 62°28' E 006°09'0 0.0
2019-Oct-11 07:00N 62°28' E 006°09'0 0.0
2019-Oct-11 06:30N 62°28' E 006°09'0 0.0
2019-Oct-11 06:00N 62°28' E 006°09'0 0.4
2019-Oct-11 05:31N 62°28' E 006°10'1 2.2
2019-Oct-11 05:01N 62°27' E 006°09'5 9.9
2019-Oct-11 04:30N 62°27' E 005°58'611.4
2019-Oct-11 04:00N 62°29' E 005°46'511.0
2019-Oct-11 03:30N 62°31' E 005°35'612.0
2019-Oct-11 03:00N 62°30' E 005°22'612.1
2019-Oct-11 02:30N 62°27' E 005°10'612.5
2019-Oct-11 02:00N 62°23' E 004°60'612.8
2019-Oct-11 01:30N 62°20' E 004°48'612.7
2019-Oct-11 01:00N 62°16' E 004°37'612.8
2019-Oct-11 00:30N 62°10' E 004°29'613.0
2019-Oct-11 00:01N 62°05' E 004°22'713.1
2019-Oct-10 23:30N 62°00' E 004°12'713.1
2019-Oct-10 23:00N 61°53' E 004°12'713.2
2019-Oct-10 22:30N 61°47' E 004°12'713.0
2019-Oct-10 22:00N 61°40' E 004°12'713.3
2019-Oct-10 21:30N 61°34' E 004°12'612.7
2019-Oct-10 21:00N 61°27' E 004°12'612.7
2019-Oct-10 20:30N 61°21' E 004°11'713.4
2019-Oct-10 19:59N 61°14' E 004°12'713.5
2019-Oct-10 19:30N 61°08' E 004°12'613.0
2019-Oct-10 19:00N 61°01' E 004°12'713.3
2019-Oct-10 18:30N 60°54' E 004°13'613.1
2019-Oct-10 18:00N 60°48' E 004°14'713.0
2019-Oct-10 17:30N 60°42' E 004°11'713.7
2019-Oct-10 17:00N 60°35' E 004°11'713.8
2019-Oct-10 16:30N 60°28' E 004°11'713.4
2019-Oct-10 16:00N 60°21' E 004°11'713.3
2019-Oct-10 15:30N 60°15' E 004°11'713.0
2019-Oct-10 15:00N 60°08' E 004°11'713.3
2019-Oct-10 14:30N 60°01' E 004°11'714.8
2019-Oct-10 14:00N 59°54' E 004°11'714.5
2019-Oct-10 13:30N 59°47' E 004°12'713.7
2019-Oct-10 13:00N 59°40' E 004°12'713.7
2019-Oct-10 12:30N 59°33' E 004°11'713.8
2019-Oct-10 12:00N 59°26' E 004°11'714.0
2019-Oct-10 11:30N 59°19' E 004°11'714.6
2019-Oct-10 10:59N 59°12' E 004°11'714.0
2019-Oct-10 10:30N 59°05' E 004°11'713.7
2019-Oct-10 10:00N 58°58' E 004°11'713.9
2019-Oct-10 09:30N 58°51' E 004°11'713.4
2019-Oct-10 09:00N 58°44' E 004°10'713.5
2019-Oct-10 08:30N 58°37' E 004°09'713.3
2019-Oct-10 08:00N 58°31' E 004°08'713.4
2019-Oct-10 07:29N 58°24' E 004°07'714.5
2019-Oct-10 07:00N 58°17' E 004°06'714.8
2019-Oct-10 06:31N 58°10' E 004°05'1014.7
2019-Oct-10 05:48N 57°59' E 004°04'414.4
2019-Oct-10 05:30N 57°55' E 004°03'22915.8
2019-Oct-09 15:00N 54°06' E 003°48'7413.7 250 / 31999.110.8 13.0 9.116.0
2019-Oct-09 09:34N 53°04' E 002°41'116.6
2019-Oct-09 09:30N 53°02' E 002°41'816.5
2019-Oct-09 09:01N 52°54' E 002°41'816.1
2019-Oct-09 08:31N 52°46' E 002°41'816.9
2019-Oct-09 08:01N 52°38' E 002°41'816.7
2019-Oct-09 07:31N 52°29' E 002°40'1016.5
2019-Oct-09 06:56N 52°20' E 002°41'716.3
2019-Oct-09 06:31N 52°13' E 002°40'816.1
2019-Oct-09 06:00N 52°05' E 002°39'816.1
2019-Oct-09 05:30N 51°57' E 002°39'815.7
2019-Oct-09 04:59N 51°49' E 002°39'815.8
2019-Oct-09 04:29N 51°42' E 002°32'816.0
2019-Oct-09 04:00N 51°36' E 002°24'816.2
2019-Oct-09 03:31N 51°30' E 002°16'816.1
2019-Oct-09 03:00N 51°23' E 002°08'816.7
2019-Oct-09 02:30N 51°15' E 002°07'816.3
2019-Oct-09 02:01N 51°11' E 001°56'816.4
2019-Oct-09 01:30N 51°07' E 001°45'816.8
2019-Oct-09 01:01N 51°01' E 001°35'917.1
2019-Oct-09 00:31N 50°55' E 001°25'917.3
2019-Oct-09 00:00N 50°47' E 001°22'916.5
2019-Oct-08 23:29N 50°39' E 001°15'816.9
2019-Oct-08 23:00N 50°34' E 001°05'2316.7
2019-Oct-08 21:38N 50°26' E 000°31'216.9
2019-Oct-08 21:29N 50°25' E 000°28'1616.9
2019-Oct-08 20:33N 50°21' E 000°04'117.1
2019-Oct-08 20:29N 50°21' E 000°02'916.5
2019-Oct-08 19:57N 50°24' W 000°11'716.9
2019-Oct-08 19:30N 50°27' W 000°21'917.2
2019-Oct-08 19:00N 50°31' W 000°33'816.9
2019-Oct-08 18:30N 50°35' W 000°45'816.6
2019-Oct-08 18:00N 50°40' W 000°55'714.6
2019-Oct-08 17:30N 50°44' W 001°05'917.7
2019-Oct-08 17:01N 50°47' W 001°18'4 8.5
2019-Oct-08 16:31N 50°51' W 001°20'4 8.8
2019-Oct-08 16:00N 50°54' W 001°25'0 0.9
2019-Oct-08 15:30N 50°54' W 001°26'0 0.0
2019-Oct-08 15:00N 50°54' W 001°26'0 0.0
2019-Oct-08 14:30N 50°54' W 001°26'0 0.0
2019-Oct-08 14:00N 50°54' W 001°26'0 0.0
2019-Oct-08 13:30N 50°54' W 001°26'0 0.0
2019-Oct-08 13:00N 50°54' W 001°26'0 0.0
2019-Oct-08 12:30N 50°54' W 001°26'0 0.0
2019-Oct-08 12:00N 50°54' W 001°26'0 0.0
2019-Oct-08 11:30N 50°54' W 001°26'0 0.0
2019-Oct-08 11:00N 50°54' W 001°26'0 0.0
2019-Oct-08 10:30N 50°54' W 001°26'0 0.0
2019-Oct-08 10:00N 50°54' W 001°26'0 0.0
2019-Oct-08 09:30N 50°54' W 001°26'0 0.0
2019-Oct-08 09:00N 50°54' W 001°26'0 0.0
2019-Oct-08 08:30N 50°54' W 001°26'0 0.0
2019-Oct-08 08:00N 50°54' W 001°26'0 0.0
2019-Oct-08 07:30N 50°54' W 001°26'0 0.0
2019-Oct-08 07:00N 50°54' W 001°26'0 0.0
2019-Oct-08 06:30N 50°54' W 001°26'0 0.0
2019-Oct-08 06:00N 50°54' W 001°26'0 0.7
2019-Oct-08 05:30N 50°54' W 001°26'3 5.9
2019-Oct-08 05:00N 50°52' W 001°23'510.0
2019-Oct-08 04:30N 50°49' W 001°17'4 8.2
2019-Oct-08 04:00N 50°46' W 001°13'815.0
2019-Oct-08 03:30N 50°43' W 001°02'612.6
2019-Oct-08 03:00N 50°39' W 000°55'612.5
2019-Oct-08 02:30N 50°36' W 000°46'1016.0
2019-Oct-08 01:54N 50°35' W 000°31'718.2
2019-Oct-08 01:30N 50°34' W 000°20'2419.9
2019-Oct-08 00:17N 50°36' E 000°18'620.5
2019-Oct-08 00:00N 50°38' E 000°27'1020.3
2019-Oct-07 23:30N 50°41' E 000°42'1020.2
2019-Oct-07 23:00N 50°47' E 000°55'1019.9
2019-Oct-07 22:30N 50°53' E 001°08'1019.8
2019-Oct-07 22:00N 50°60' E 001°19'1019.3
2019-Oct-07 21:31N 51°06' E 001°31'918.6
2019-Oct-07 21:01N 51°11' E 001°43'918.0
2019-Oct-07 20:31N 51°19' E 001°50'917.9
2019-Oct-07 20:00N 51°27' E 001°56'918.1
2019-Oct-07 19:30N 51°34' E 002°05'918.5
2019-Oct-07 19:00N 51°41' E 002°15'  
Track history (hours):
 
Tides and Currents Weather Stations Pressure Air Temp Water Temp Dewpoint Dewpoint Depression Visibility Wind Speed Wind Dir Waves Ship Positions

Queen Elizabeth

Last reported at 2019-Oct-17 17:29 UTC. Time now 2019-Oct-17 17:38 UTC.
Position N 61°21' E 004°00'.

Length 294 m; draft 8 m.

Type: Passenger vessel. MMSI: 310625000.

Date/timePositionNaut miles runAvg speedWind from/ knotsBaromVisibWave heightAir tempDewpointWater temp
2019-Oct-17 17:29N 61°21' E 004°00'715.1
2019-Oct-17 17:00N 61°28' E 003°59'714.7
2019-Oct-17 16:30N 61°36' E 004°00'714.5
2019-Oct-17 16:00N 61°43' E 004°01'714.6
2019-Oct-17 15:30N 61°50' E 004°01'714.8
2019-Oct-17 15:00N 61°57' E 004°01'714.8
2019-Oct-17 14:30N 62°05' E 004°01'714.7
2019-Oct-17 14:00N 62°12' E 004°01'63732.3
2019-Oct-17 14:00N 62°06' E 004°00'1428.1 140 / 191001.8 5.4 11.0 9.012.0
2019-Oct-17 13:31N 62°20' E 004°01'815.1
2019-Oct-17 13:00N 62°27' E 004°01'815.5
2019-Oct-17 12:30N 62°35' E 004°01'814.9
2019-Oct-17 11:59N 62°43' E 004°01'714.7
2019-Oct-17 11:30N 62°50' E 004°01'815.2
2019-Oct-17 11:00N 62°57' E 004°02'815.5
2019-Oct-17 10:30N 63°04' E 004°11'815.9
2019-Oct-17 10:00N 63°10' E 004°22'5398.4
2019-Oct-17 10:00N 63°06' E 004°18'1225.4 150 / 121004.0 11.0 9.011.0
2019-Oct-17 09:30N 63°17' E 004°33'815.7
2019-Oct-17 09:00N 63°23' E 004°43'815.4
2019-Oct-17 08:30N 63°29' E 004°54'815.5
2019-Oct-17 08:00N 63°35' E 005°05'815.1
2019-Oct-17 07:31N 63°40' E 005°16'815.2
2019-Oct-17 07:00N 63°46' E 005°27'715.1
2019-Oct-17 06:30N 63°52' E 005°38'815.2
2019-Oct-17 06:00N 63°58' E 005°50'815.4
2019-Oct-17 05:30N 64°04' E 006°01'815.6
2019-Oct-17 05:00N 64°09' E 006°13'815.7
2019-Oct-17 04:30N 64°15' E 006°25'815.9
2019-Oct-17 04:00N 64°22' E 006°37'815.6
2019-Oct-17 03:30N 64°27' E 006°48'815.5
2019-Oct-17 03:00N 64°33' E 007°00'815.7
2019-Oct-17 02:30N 64°39' E 007°12'815.9
2019-Oct-17 02:00N 64°45' E 007°24'816.0
2019-Oct-17 01:30N 64°51' E 007°36'1216.0
2019-Oct-17 00:44N 65°00' E 007°55'516.1
2019-Oct-17 00:25N 65°04' E 008°03'715.9
2019-Oct-17 00:00N 65°09' E 008°13'815.7
2019-Oct-16 23:30N 65°15' E 008°26'815.7
2019-Oct-16 23:00N 65°21' E 008°38'815.7
2019-Oct-16 22:30N 65°27' E 008°50'815.4
2019-Oct-16 22:00N 65°33' E 009°02'815.7
2019-Oct-16 21:30N 65°39' E 009°15'815.8
2019-Oct-16 21:00N 65°45' E 009°28'31740.0
2019-Oct-16 21:00N 65°42' E 009°24'1122.6 100 / 331010.2 8.0 0.510.0
2019-Oct-16 20:30N 65°51' E 009°40'816.0
2019-Oct-16 20:00N 65°57' E 009°53'815.8
2019-Oct-16 19:30N 66°03' E 010°06'815.4
2019-Oct-16 19:00N 66°09' E 010°18'917.2
2019-Oct-16 18:30N 66°16' E 010°32'917.9
2019-Oct-16 18:00N 66°22' E 010°47'917.5
2019-Oct-16 17:30N 66°29' E 011°01'917.1
2019-Oct-16 17:00N 66°35' E 011°15'817.1
2019-Oct-16 16:30N 66°42' E 011°29'815.9
2019-Oct-16 16:00N 66°48' E 011°42'815.9
2019-Oct-16 15:30N 66°54' E 011°55'816.1
2019-Oct-16 15:00N 67°00' E 012°08'816.0
2019-Oct-16 14:30N 67°06' E 012°21'815.9
2019-Oct-16 14:00N 67°12' E 012°35'816.0
2019-Oct-16 13:30N 67°18' E 012°48'816.3
2019-Oct-16 13:00N 67°24' E 013°02'816.3
2019-Oct-16 12:30N 67°31' E 013°16'816.4
2019-Oct-16 12:00N 67°37' E 013°29'816.4
2019-Oct-16 11:30N 67°43' E 013°44'816.0
2019-Oct-16 11:00N 67°49' E 013°59'816.3
2019-Oct-16 10:30N 67°54' E 014°16'816.0
2019-Oct-16 10:00N 67°58' E 014°33'816.0
2019-Oct-16 09:30N 68°03' E 014°50'816.0
2019-Oct-16 09:00N 68°08' E 015°08'816.0
2019-Oct-16 08:30N 68°11' E 015°27'815.8
2019-Oct-16 08:00N 68°16' E 015°45'815.5
2019-Oct-16 07:30N 68°21' E 016°01'713.8
2019-Oct-16 07:00N 68°24' E 016°18'816.0
2019-Oct-16 06:30N 68°26' E 016°39'816.3
2019-Oct-16 06:00N 68°26' E 017°01'715.3
2019-Oct-16 05:30N 68°26' E 017°21'2 3.1
2019-Oct-16 05:00N 68°26' E 017°25'0 0.0
2019-Oct-16 04:30N 68°26' E 017°25'0 0.0
2019-Oct-16 04:00N 68°26' E 017°25'0 0.0
2019-Oct-16 03:30N 68°26' E 017°25'0 0.0
2019-Oct-16 03:00N 68°26' E 017°25'0 0.0
2019-Oct-16 02:30N 68°26' E 017°25'0 0.0
2019-Oct-16 02:00N 68°26' E 017°25'0 0.0
2019-Oct-16 01:30N 68°26' E 017°25'0 0.0
2019-Oct-16 01:00N 68°26' E 017°25'0 0.0
2019-Oct-16 00:30N 68°26' E 017°25'0 0.0
2019-Oct-16 00:00N 68°26' E 017°25'0 0.0
2019-Oct-15 23:30N 68°26' E 017°25'0 0.0
2019-Oct-15 23:00N 68°26' E 017°25'0 0.0
2019-Oct-15 22:30N 68°26' E 017°25'0 0.0
2019-Oct-15 22:00N 68°26' E 017°25'0 0.0
2019-Oct-15 21:30N 68°26' E 017°25'0 0.0
2019-Oct-15 21:00N 68°26' E 017°25'0 0.0
2019-Oct-15 20:30N 68°26' E 017°25'0 0.0
2019-Oct-15 20:00N 68°26' E 017°25'0 0.0
2019-Oct-15 19:30N 68°26' E 017°25'0 0.0
2019-Oct-15 19:00N 68°26' E 017°25'0 0.0
2019-Oct-15 18:30N 68°26' E 017°25'0 0.0
2019-Oct-15 18:00N 68°26' E 017°25'0 0.0
2019-Oct-15 17:30N 68°26' E 017°25'0 0.0
2019-Oct-15 17:00N 68°26' E 017°25'0 0.0
2019-Oct-15 16:30N 68°26' E 017°25'0 0.0
2019-Oct-15 16:00N 68°26' E 017°25'0 0.0
2019-Oct-15 15:30N 68°26' E 017°25'0 0.0
2019-Oct-15 15:00N 68°26' E 017°25'0 0.0
2019-Oct-15 14:30N 68°26' E 017°25'0 0.0
2019-Oct-15 14:00N 68°26' E 017°25'0 0.0
2019-Oct-15 13:30N 68°26' E 017°25'0 0.0
2019-Oct-15 13:00N 68°26' E 017°25'0 0.0
2019-Oct-15 12:30N 68°26' E 017°25'0 0.0
2019-Oct-15 12:00N 68°26' E 017°25'0 0.0
2019-Oct-15 11:30N 68°26' E 017°25'0 0.0
2019-Oct-15 11:00N 68°26' E 017°25'0 0.0
2019-Oct-15 10:30N 68°26' E 017°25'0 0.0
2019-Oct-15 10:00N 68°26' E 017°25'0 0.0
2019-Oct-15 09:30N 68°26' E 017°25'0 0.0
2019-Oct-15 09:00N 68°26' E 017°25'0 0.0
2019-Oct-15 08:30N 68°26' E 017°25'0 0.0
2019-Oct-15 08:00N 68°26' E 017°25'0 0.0
2019-Oct-15 07:30N 68°26' E 017°25'0 0.0
2019-Oct-15 07:00N 68°26' E 017°25'0 0.0
2019-Oct-15 06:30N 68°26' E 017°25'0 0.0
2019-Oct-15 06:00N 68°26' E 017°25'0 0.1
2019-Oct-15 05:30N 68°26' E 017°25'3 5.4
2019-Oct-15 05:00N 68°26' E 017°18'815.0
2019-Oct-15 04:30N 68°26' E 016°57'816.7
2019-Oct-15 04:00N 68°26' E 016°35'816.5
2019-Oct-15 03:30N 68°23' E 016°14'510.6
2019-Oct-15 03:00N 68°21' E 016°00'510.3
2019-Oct-15 02:30N 68°18' E 015°50'510.0
2019-Oct-15 02:00N 68°14' E 015°41'510.2
2019-Oct-15 01:30N 68°12' E 015°29'510.5
2019-Oct-15 01:00N 68°10' E 015°16'510.7
2019-Oct-15 00:30N 68°08' E 015°03'510.7
2019-Oct-15 00:00N 68°05' E 014°50'510.1
2019-Oct-14 23:30N 68°03' E 014°37'510.1
2019-Oct-14 23:00N 68°01' E 014°25'510.5
2019-Oct-14 22:30N 67°59' E 014°12'510.9
2019-Oct-14 22:00N 67°57' E 013°59'510.6
2019-Oct-14 21:30N 67°55' E 013°46'610.9
2019-Oct-14 20:59N 67°53' E 013°32'510.9
2019-Oct-14 20:30N 67°51' E 013°19'611.0
2019-Oct-14 20:00N 67°49' E 013°05'713.4
2019-Oct-14 19:30N 67°48' E 012°48'611.6
2019-Oct-14 19:00N 67°49' E 012°33'611.5
2019-Oct-14 18:30N 67°51' E 012°18'611.1
2019-Oct-14 17:59N 67°55' E 012°08'510.3
2019-Oct-14 17:30N 67°60' E 012°02'611.5
2019-Oct-14 17:00N 68°05' E 012°10'611.3
2019-Oct-14 16:30N 68°10' E 012°18'510.8
2019-Oct-14 15:59N 68°14' E 012°25'510.6
2019-Oct-14 15:30N 68°19' E 012°33'611.2
2019-Oct-14 15:00N 68°23' E 012°42'611.2
2019-Oct-14 14:30N 68°27' E 012°52'510.7
2019-Oct-14 14:00N 68°32' E 013°00'510.8
2019-Oct-14 13:30N 68°36' E 013°10'510.9
2019-Oct-14 13:00N 68°40' E 013°18'611.1
2019-Oct-14 12:30N 68°45' E 013°28'612.0
2019-Oct-14 12:00N 68°50' E 013°38'612.0
2019-Oct-14 11:30N 68°54' E 013°48'713.0
2019-Oct-14 11:00N 68°60' E 013°58'612.8
2019-Oct-14 10:30N 69°05' E 014°08'612.3
2019-Oct-14 10:00N 69°10' E 014°19'612.2
2019-Oct-14 09:30N 69°14' E 014°33'611.6
2019-Oct-14 09:00N 69°17' E 014°45'611.7
2019-Oct-14 08:29N 69°21' E 014°59'611.8
2019-Oct-14 08:00N 69°24' E 015°12'611.6
2019-Oct-14 07:30N 69°28' E 015°25'611.5
2019-Oct-14 07:00N 69°31' E 015°38'611.0
2019-Oct-14 06:30N 69°34' E 015°52'611.2
2019-Oct-14 06:00N 69°36' E 016°06'611.5
2019-Oct-14 05:30N 69°38' E 016°22'511.0
2019-Oct-14 05:00N 69°39' E 016°37'510.8
2019-Oct-14 04:30N 69°40' E 016°52'611.0
2019-Oct-14 04:00N 69°41' E 017°08'611.1
2019-Oct-14 03:30N 69°42' E 017°24'611.5
2019-Oct-14 03:00N 69°43' E 017°40'611.5
2019-Oct-14 02:30N 69°45' E 017°57'510.7
2019-Oct-14 02:00N 69°46' E 018°12'714.9
2019-Oct-14 01:30N 69°49' E 018°31'612.3
2019-Oct-14 01:00N 69°54' E 018°38'713.6
2019-Oct-14 00:30N 69°51' E 018°55'612.2
2019-Oct-14 00:00N 69°46' E 019°04'510.1
2019-Oct-13 23:30N 69°41' E 019°01'1 1.0
2019-Oct-13 22:57N 69°41' E 018°59'0 0.0
2019-Oct-13 22:27N 69°41' E 018°59'0 0.0
2019-Oct-13 21:57N 69°41' E 018°59'0 0.0
2019-Oct-13 21:27N 69°41' E 018°59'0 0.0
2019-Oct-13 20:57N 69°41' E 018°59'0 0.0
2019-Oct-13 20:27N 69°41' E 018°59'0 0.0
2019-Oct-13 19:57N 69°41' E 018°59'0 0.0
2019-Oct-13 19:27N 69°41' E 018°59'0 0.0
2019-Oct-13 18:57N 69°41' E 018°59'0 0.0
2019-Oct-13 18:27N 69°41' E 018°59'0 0.0
2019-Oct-13 17:57N 69°41' E 018°59'0 0.0
2019-Oct-13 17:27N 69°41' E 018°59'0 0.0
2019-Oct-13 16:57N 69°41' E 018°59'0 0.0
2019-Oct-13 16:27N 69°41' E 018°59'0 0.0
2019-Oct-13 15:57N 69°41' E 018°59'0 0.0
2019-Oct-13 15:27N 69°41' E 018°59'0 0.0
2019-Oct-13 14:57N 69°41' E 018°59'0 0.0
2019-Oct-13 14:27N 69°41' E 018°59'0 0.0
2019-Oct-13 13:57N 69°41' E 018°59'0 0.0
2019-Oct-13 13:27N 69°41' E 018°59'0 0.0
2019-Oct-13 12:57N 69°41' E 018°59'0 0.0
2019-Oct-13 12:27N 69°41' E 018°59'0 0.0
2019-Oct-13 11:57N 69°41' E 018°59'0 0.0
2019-Oct-13 11:27N 69°41' E 018°59'0 0.0
2019-Oct-13 10:57N 69°41' E 018°59'0 0.0
2019-Oct-13 10:27N 69°41' E 018°59'0 0.0
2019-Oct-13 09:57N 69°41' E 018°59'0 0.0
2019-Oct-13 09:27N 69°41' E 018°59'0 0.0
2019-Oct-13 08:57N 69°41' E 018°59'0 0.0
2019-Oct-13 08:27N 69°41' E 018°59'0 0.0
2019-Oct-13 07:57N 69°41' E 018°59'0 0.0
2019-Oct-13 07:27N 69°41' E 018°59'0 0.0
2019-Oct-13 06:57N 69°41' E 018°59'0 0.0
2019-Oct-13 06:27N 69°41' E 018°59'0 0.0
2019-Oct-13 06:00N 69°41' E 018°59'2 4.6
2019-Oct-13 05:30N 69°43' E 019°03'5 9.8
2019-Oct-13 05:00N 69°48' E 019°02'510.3
2019-Oct-13 04:30N 69°51' E 018°53'611.2
2019-Oct-13 04:00N 69°54' E 018°39'510.7
2019-Oct-13 03:30N 69°49' E 018°38'612.1
2019-Oct-13 03:00N 69°48' E 018°21'611.3
2019-Oct-13 02:30N 69°45' E 018°07'510.1
2019-Oct-13 02:00N 69°44' E 017°52'815.6
2019-Oct-13 01:30N 69°42' E 017°31'815.4
2019-Oct-13 01:00N 69°39' E 017°11'815.4
2019-Oct-13 00:30N 69°35' E 016°51'715.0
2019-Oct-13 00:00N 69°32' E 016°31'815.6
2019-Oct-12 23:30N 69°29' E 016°11'816.5
2019-Oct-12 23:00N 69°26' E 015°49'816.6
2019-Oct-12 22:30N 69°22' E 015°28'816.9
2019-Oct-12 22:00N 69°19' E 015°06'8612.0
2019-Oct-12 22:00N 69°12' E 014°54'5 9.3 040 / 15997.9 4.0-1.610.0
2019-Oct-12 21:30N 69°15' E 014°45'816.3
2019-Oct-12 21:00N 69°11' E 014°25'816.7
2019-Oct-12 20:30N 69°04' E 014°12'816.1
2019-Oct-12 20:00N 68°58' E 013°59'816.2
2019-Oct-12 19:30N 68°51' E 013°44'816.0
2019-Oct-12 19:00N 68°45' E 013°31'815.9
2019-Oct-12 18:30N 68°39' E 013°17'816.0
2019-Oct-12 18:00N 68°33' E 013°04'10647.4
2019-Oct-12 18:00N 68°24' E 012°48'2 4.9 030 / 20994.910.8 5.0-3.713.0
2019-Oct-12 17:30N 68°26' E 012°51'815.6
2019-Oct-12 17:00N 68°20' E 012°38'815.3
2019-Oct-12 16:30N 68°14' E 012°27'816.0
2019-Oct-12 16:00N 68°07' E 012°14'816.2
2019-Oct-12 15:30N 68°00' E 012°01'816.1
2019-Oct-12 15:00N 67°54' E 011°48'815.8
2019-Oct-12 14:30N 67°47' E 011°36'815.7
2019-Oct-12 14:00N 67°41' E 011°24'815.6
2019-Oct-12 13:30N 67°35' E 011°14'816.4
2019-Oct-12 13:00N 67°27' E 011°05'816.6
2019-Oct-12 12:30N 67°19' E 010°55'816.3
2019-Oct-12 12:00N 67°12' E 010°46'816.4
2019-Oct-12 11:30N 67°05' E 010°38'816.6
2019-Oct-12 11:00N 66°57' E 010°30'816.6
2019-Oct-12 10:30N 66°50' E 010°21'816.2
2019-Oct-12 10:00N 66°42' E 010°12'816.2
2019-Oct-12 09:30N 66°35' E 010°04'816.2
2019-Oct-12 09:00N 66°27' E 009°56'816.0
2019-Oct-12 08:30N 66°20' E 009°48'816.1
2019-Oct-12 08:00N 66°13' E 009°39'816.1
2019-Oct-12 07:30N 66°05' E 009°31'816.3
2019-Oct-12 07:00N 65°58' E 009°22'816.1
2019-Oct-12 06:30N 65°51' E 009°15'816.2
2019-Oct-12 06:00N 65°43' E 009°06'5315.0
2019-Oct-12 06:00N 65°48' E 009°12'1425.9 020 / 23990.010.8 7.0-0.910.0
2019-Oct-12 05:26N 65°35' E 008°57'716.4
2019-Oct-12 05:00N 65°28' E 008°50'816.3
2019-Oct-12 04:30N 65°21' E 008°42'816.2
2019-Oct-12 04:00N 65°14' E 008°34'815.9
2019-Oct-12 03:30N 65°06' E 008°26'815.7
2019-Oct-12 03:00N 64°59' E 008°18'815.0
2019-Oct-12 02:30N 64°52' E 008°11'1835.6
2019-Oct-12 02:00N 64°36' E 007°54'1018553.6 030 / 25989.010.8 8.0 0.510.0
2019-Oct-12 01:59N 64°45' E 008°04'815.2
2019-Oct-12 01:30N 64°39' E 007°56'815.2
2019-Oct-12 01:00N 64°32' E 007°49'815.2
2019-Oct-12 00:30N 64°25' E 007°42'815.3
2019-Oct-12 00:00N 64°18' E 007°34'815.4
2019-Oct-11 23:30N 64°11' E 007°26'815.5
2019-Oct-11 23:00N 64°04' E 007°18'815.5
2019-Oct-11 22:30N 63°57' E 007°10'815.5
2019-Oct-11 22:00N 63°50' E 007°02'815.9
2019-Oct-11 21:30N 63°43' E 006°54'815.5
2019-Oct-11 21:00N 63°36' E 006°46'71520.3
2019-Oct-11 21:00N 63°42' E 006°54'1529.4 040 / 19989.4 9.0 1.811.6
2019-Oct-11 20:30N 63°29' E 006°38'815.6
2019-Oct-11 19:59N 63°22' E 006°30'715.3
2019-Oct-11 19:30N 63°16' E 006°22'815.1
2019-Oct-11 19:00N 63°09' E 006°15'814.8
2019-Oct-11 18:30N 63°02' E 006°07'816.0
2019-Oct-11 18:00N 62°55' E 005°60'9914.9
2019-Oct-11 18:00N 62°48' E 005°48'2 4.7 050 / 20987.510.8 10.0 7.913.0
2019-Oct-11 17:30N 62°48' E 005°53'715.3
2019-Oct-11 17:00N 62°41' E 005°45'713.9
2019-Oct-11 16:30N 62°35' E 005°39'612.9
2019-Oct-11 16:00N 62°29' E 005°46'713.4
2019-Oct-11 15:30N 62°27' E 006°00'510.1
2019-Oct-11 15:00N 62°28' E 006°11'1 1.6
2019-Oct-11 14:30N 62°28' E 006°09'0 0.0
2019-Oct-11 14:00N 62°28' E 006°09'0 0.0
2019-Oct-11 13:30N 62°28' E 006°09'0 0.0
2019-Oct-11 13:00N 62°28' E 006°09'0 0.0
2019-Oct-11 12:30N 62°28' E 006°09'0 0.0
2019-Oct-11 12:00N 62°28' E 006°09'0 0.0
2019-Oct-11 11:30N 62°28' E 006°09'0 0.0
2019-Oct-11 11:00N 62°28' E 006°09'0 0.0
2019-Oct-11 10:30N 62°28' E 006°09'0 0.0
2019-Oct-11 10:00N 62°28' E 006°09'0 0.0
2019-Oct-11 09:30N 62°28' E 006°09'0 0.0
2019-Oct-11 09:00N 62°28' E 006°09'0 0.0
2019-Oct-11 08:30N 62°28' E 006°09'0 0.0
2019-Oct-11 08:00N 62°28' E 006°09'0 0.0
2019-Oct-11 07:30N 62°28' E 006°09'0 0.0
2019-Oct-11 07:00N 62°28' E 006°09'0 0.0
2019-Oct-11 06:30N 62°28' E 006°09'0 0.0
2019-Oct-11 06:00N 62°28' E 006°09'0 0.4
2019-Oct-11 05:31N 62°28' E 006°10'1 2.2
2019-Oct-11 05:01N 62°27' E 006°09'5 9.9
2019-Oct-11 04:30N 62°27' E 005°58'611.4
2019-Oct-11 04:00N 62°29' E 005°46'511.0
2019-Oct-11 03:30N 62°31' E 005°35'612.0
2019-Oct-11 03:00N 62°30' E 005°22'612.1
2019-Oct-11 02:30N 62°27' E 005°10'612.5
2019-Oct-11 02:00N 62°23' E 004°60'612.8
2019-Oct-11 01:30N 62°20' E 004°48'612.7
2019-Oct-11 01:00N 62°16' E 004°37'612.8
2019-Oct-11 00:30N 62°10' E 004°29'613.0
2019-Oct-11 00:01N 62°05' E 004°22'713.1
2019-Oct-10 23:30N 62°00' E 004°12'713.1
2019-Oct-10 23:00N 61°53' E 004°12'713.2
2019-Oct-10 22:30N 61°47' E 004°12'713.0
2019-Oct-10 22:00N 61°40' E 004°12'713.3
2019-Oct-10 21:30N 61°34' E 004°12'612.7
2019-Oct-10 21:00N 61°27' E 004°12'612.7
2019-Oct-10 20:30N 61°21' E 004°11'713.4
2019-Oct-10 19:59N 61°14' E 004°12'713.5
2019-Oct-10 19:30N 61°08' E 004°12'613.0
2019-Oct-10 19:00N 61°01' E 004°12'713.3
2019-Oct-10 18:30N 60°54' E 004°13'613.1
2019-Oct-10 18:00N 60°48' E 004°14'713.0
2019-Oct-10 17:30N 60°42' E 004°11'713.7
2019-Oct-10 17:00N 60°35' E 004°11'713.8
2019-Oct-10 16:30N 60°28' E 004°11'713.4
2019-Oct-10 16:00N 60°21' E 004°11'713.3
2019-Oct-10 15:30N 60°15' E 004°11'713.0
2019-Oct-10 15:00N 60°08' E 004°11'713.3
2019-Oct-10 14:30N 60°01' E 004°11'714.8
2019-Oct-10 14:00N 59°54' E 004°11'714.5
2019-Oct-10 13:30N 59°47' E 004°12'713.7
2019-Oct-10 13:00N 59°40' E 004°12'713.7
2019-Oct-10 12:30N 59°33' E 004°11'713.8
2019-Oct-10 12:00N 59°26' E 004°11'714.0
2019-Oct-10 11:30N 59°19' E 004°11'714.6
2019-Oct-10 10:59N 59°12' E 004°11'714.0
2019-Oct-10 10:30N 59°05' E 004°11'713.7
2019-Oct-10 10:00N 58°58' E 004°11'713.9
2019-Oct-10 09:30N 58°51' E 004°11'713.4
2019-Oct-10 09:00N 58°44' E 004°10'713.5
2019-Oct-10 08:30N 58°37' E 004°09'713.3
2019-Oct-10 08:00N 58°31' E 004°08'713.4
2019-Oct-10 07:29N 58°24' E 004°07'714.5
2019-Oct-10 07:00N 58°17' E 004°06'714.8
2019-Oct-10 06:31N 58°10' E 004°05'1014.7
2019-Oct-10 05:48N 57°59' E 004°04'414.4
2019-Oct-10 05:30N 57°55' E 004°03'22915.8
2019-Oct-09 15:00N 54°06' E 003°48'7413.7 250 / 31999.110.8 13.0 9.116.0
2019-Oct-09 09:34N 53°04' E 002°41'116.6
2019-Oct-09 09:30N 53°02' E 002°41'816.5
2019-Oct-09 09:01N 52°54' E 002°41'816.1
2019-Oct-09 08:31N 52°46' E 002°41'816.9
2019-Oct-09 08:01N 52°38' E 002°41'816.7
2019-Oct-09 07:31N 52°29' E 002°40'1016.5
2019-Oct-09 06:56N 52°20' E 002°41'716.3
2019-Oct-09 06:31N 52°13' E 002°40'816.1
2019-Oct-09 06:00N 52°05' E 002°39'816.1
2019-Oct-09 05:30N 51°57' E 002°39'815.7
2019-Oct-09 04:59N 51°49' E 002°39'815.8
2019-Oct-09 04:29N 51°42' E 002°32'816.0
2019-Oct-09 04:00N 51°36' E 002°24'816.2
2019-Oct-09 03:31N 51°30' E 002°16'816.1
2019-Oct-09 03:00N 51°23' E 002°08'816.7
2019-Oct-09 02:30N 51°15' E 002°07'816.3
2019-Oct-09 02:01N 51°11' E 001°56'816.4
2019-Oct-09 01:30N 51°07' E 001°45'816.8
2019-Oct-09 01:01N 51°01' E 001°35'917.1
2019-Oct-09 00:31N 50°55' E 001°25'917.3
2019-Oct-09 00:00N 50°47' E 001°22'916.5
2019-Oct-08 23:29N 50°39' E 001°15'816.9
2019-Oct-08 23:00N 50°34' E 001°05'2316.7
2019-Oct-08 21:38N 50°26' E 000°31'216.9
2019-Oct-08 21:29N 50°25' E 000°28'1616.9
2019-Oct-08 20:33N 50°21' E 000°04'117.1
2019-Oct-08 20:29N 50°21' E 000°02'916.5
2019-Oct-08 19:57N 50°24' W 000°11'716.9
2019-Oct-08 19:30N 50°27' W 000°21'917.2
2019-Oct-08 19:00N 50°31' W 000°33'816.9
2019-Oct-08 18:30N 50°35' W 000°45'816.6
2019-Oct-08 18:00N 50°40' W 000°55'714.6
2019-Oct-08 17:30N 50°44' W 001°05'917.7
2019-Oct-08 17:01N 50°47' W 001°18'4 8.5
2019-Oct-08 16:31N 50°51' W 001°20'4 8.8
2019-Oct-08 16:00N 50°54' W 001°25'0 0.9
2019-Oct-08 15:30N 50°54' W 001°26'0 0.0
2019-Oct-08 15:00N 50°54' W 001°26'0 0.0
2019-Oct-08 14:30N 50°54' W 001°26'0 0.0
2019-Oct-08 14:00N 50°54' W 001°26'0 0.0
2019-Oct-08 13:30N 50°54' W 001°26'0 0.0
2019-Oct-08 13:00N 50°54' W 001°26'0 0.0
2019-Oct-08 12:30N 50°54' W 001°26'0 0.0
2019-Oct-08 12:00N 50°54' W 001°26'0 0.0
2019-Oct-08 11:30N 50°54' W 001°26'0 0.0
2019-Oct-08 11:00N 50°54' W 001°26'0 0.0
2019-Oct-08 10:30N 50°54' W 001°26'0 0.0
2019-Oct-08 10:00N 50°54' W 001°26'0 0.0
2019-Oct-08 09:30N 50°54' W 001°26'0 0.0
2019-Oct-08 09:00N 50°54' W 001°26'0 0.0
2019-Oct-08 08:30N 50°54' W 001°26'0 0.0
2019-Oct-08 08:00N 50°54' W 001°26'0 0.0
2019-Oct-08 07:30N 50°54' W 001°26'0 0.0
2019-Oct-08 07:00N 50°54' W 001°26'0 0.0
2019-Oct-08 06:30N 50°54' W 001°26'0 0.0
2019-Oct-08 06:00N 50°54' W 001°26'0 0.7
2019-Oct-08 05:30N 50°54' W 001°26'3 5.9
2019-Oct-08 05:00N 50°52' W 001°23'510.0
2019-Oct-08 04:30N 50°49' W 001°17'4 8.2
2019-Oct-08 04:00N 50°46' W 001°13'815.0
2019-Oct-08 03:30N 50°43' W 001°02'612.6
2019-Oct-08 03:00N 50°39' W 000°55'612.5
2019-Oct-08 02:30N 50°36' W 000°46'1016.0
2019-Oct-08 01:54N 50°35' W 000°31'718.2
2019-Oct-08 01:30N 50°34' W 000°20'2419.9
2019-Oct-08 00:17N 50°36' E 000°18'620.5
2019-Oct-08 00:00N 50°38' E 000°27'1020.3
2019-Oct-07 23:30N 50°41' E 000°42'1020.2
2019-Oct-07 23:00N 50°47' E 000°55'1019.9
2019-Oct-07 22:30N 50°53' E 001°08'1019.8
2019-Oct-07 22:00N 50°60' E 001°19'1019.3
2019-Oct-07 21:31N 51°06' E 001°31'918.6
2019-Oct-07 21:01N 51°11' E 001°43'918.0
2019-Oct-07 20:31N 51°19' E 001°50'917.9
2019-Oct-07 20:00N 51°27' E 001°56'918.1
2019-Oct-07 19:30N 51°34' E 002°05'918.5
2019-Oct-07 19:00N 51°41' E 002°15'  

Dump ship's entire track history